createdAt,value
2023-03-22T00:01:23.908Z,5.90
2023-03-22T00:03:52.789Z,5.88
2023-03-22T00:06:20.519Z,5.90
2023-03-22T00:08:52.539Z,6.10
2023-03-22T00:11:22.076Z,6.05
2023-03-22T00:13:52.723Z,6.45
2023-03-22T00:16:21.316Z,6.68
2023-03-22T00:18:48.709Z,6.28
2023-03-22T00:21:17.029Z,5.38
2023-03-22T00:23:44.912Z,7.20
2023-03-22T00:26:13.263Z,6.70
2023-03-22T00:28:41.755Z,6.80
2023-03-22T00:31:09.931Z,6.22
2023-03-22T00:33:37.895Z,6.25
2023-03-22T00:36:08.440Z,7.35
2023-03-22T00:38:46.323Z,7.13
2023-03-22T00:41:16.674Z,7.07
2023-03-22T00:43:46.756Z,7.05
2023-03-22T00:46:15.292Z,7.03
2023-03-22T00:48:42.722Z,6.65
2023-03-22T00:51:10.939Z,6.65
2023-03-22T00:53:42.566Z,6.90
2023-03-22T00:56:15.048Z,7.40
2023-03-22T00:58:46.274Z,6.93
2023-03-22T01:01:15.044Z,7.47
2023-03-22T01:03:43.964Z,7.28
2023-03-22T01:06:15.050Z,7.30
2023-03-22T01:08:43.029Z,6.55
2023-03-22T01:11:10.458Z,6.90
2023-03-22T01:13:37.931Z,7.30
2023-03-22T01:16:07.173Z,6.20
2023-03-22T01:18:35.410Z,6.20
2023-03-22T01:21:03.386Z,5.88
2023-03-22T01:23:32.074Z,5.70
2023-03-22T01:25:59.766Z,6.07
2023-03-22T01:28:27.422Z,5.97
2023-03-22T01:30:55.976Z,5.63
2023-03-22T01:33:23.587Z,5.93
2023-03-22T01:35:51.971Z,6.38
2023-03-22T01:38:20.648Z,6.55
2023-03-22T01:40:57.886Z,6.65
2023-03-22T01:43:26.845Z,6.93
2023-03-22T01:45:55.802Z,6.28
2023-03-22T01:48:34.379Z,6.95
2023-03-22T01:51:16.842Z,7.07
2023-03-22T01:54:08.743Z,6.53
2023-03-22T01:56:39.604Z,6.40
2023-03-22T01:59:13.214Z,7.05
2023-03-22T02:02:00.351Z,6.97
2023-03-22T02:04:34.560Z,6.65
2023-03-22T02:07:15.730Z,6.57
2023-03-22T02:09:46.741Z,6.45
2023-03-22T02:12:35.837Z,6.38
2023-03-22T02:15:25.403Z,7.25
2023-03-22T02:18:50.551Z,7.35
2023-03-22T02:21:56.059Z,7.05
2023-03-22T02:24:48.775Z,7.22
2023-03-22T02:27:23.083Z,6.30
2023-03-22T02:30:24.062Z,6.55
2023-03-22T02:33:29.665Z,6.00
2023-03-22T02:36:08.947Z,6.57
2023-03-22T02:39:08.665Z,6.47
2023-03-22T02:41:51.373Z,6.30
2023-03-22T02:44:34.031Z,6.45
2023-03-22T02:47:06.465Z,6.65
2023-03-22T02:49:44.106Z,7.05
2023-03-22T02:52:25.396Z,6.35
2023-03-22T02:55:11.542Z,6.15
2023-03-22T02:57:54.985Z,6.72
2023-03-22T03:00:26.973Z,7.10
2023-03-22T03:03:11.338Z,5.93
2023-03-22T03:05:43.765Z,5.22
2023-03-22T03:08:16.499Z,6.18
2023-03-22T03:10:45.381Z,5.72
2023-03-22T03:13:15.239Z,5.70
2023-03-22T03:15:46.537Z,5.80
2023-03-22T03:18:25.836Z,6.05
2023-03-22T03:21:11.274Z,6.20
2023-03-22T03:23:49.681Z,5.60
2023-03-22T03:26:29.914Z,5.75
2023-03-22T03:29:41.276Z,5.60
2023-03-22T03:32:21.765Z,5.15
2023-03-22T03:35:18.063Z,5.38
2023-03-22T03:37:49.640Z,5.07
2023-03-22T03:40:23.379Z,5.45
2023-03-22T03:42:53.958Z,5.50
2023-03-22T03:45:22.486Z,5.47
2023-03-22T03:47:57.311Z,5.47
2023-03-22T03:50:26.416Z,5.15
2023-03-22T03:52:56.058Z,5.63
2023-03-22T03:55:24.977Z,5.55
2023-03-22T03:57:52.279Z,4.57
2023-03-22T04:00:20.518Z,4.03
2023-03-22T04:03:07.687Z,4.05
2023-03-22T04:05:59.965Z,3.83
2023-03-22T04:08:29.775Z,4.00
2023-03-22T04:10:57.574Z,3.75
2023-03-22T04:13:25.365Z,3.33
2023-03-22T04:15:58.162Z,3.85
2023-03-22T04:18:29.782Z,4.63
2023-03-22T04:20:59.962Z,3.63
2023-03-22T04:23:33.263Z,3.90
2023-03-22T04:26:01.016Z,3.95
2023-03-22T04:28:40.860Z,3.92
2023-03-22T04:31:08.693Z,4.18
2023-03-22T04:33:55.085Z,3.92
2023-03-22T04:36:43.076Z,4.28
2023-03-22T04:39:24.202Z,3.95
2023-03-22T04:42:00.871Z,3.65
2023-03-22T04:44:28.709Z,4.03
2023-03-22T04:46:56.068Z,4.07
2023-03-22T04:49:24.101Z,4.38
2023-03-22T04:51:52.036Z,4.45
2023-03-22T04:54:35.366Z,4.40
2023-03-22T04:57:04.369Z,4.20
2023-03-22T04:59:38.030Z,4.40
2023-03-22T05:02:05.278Z,4.43
2023-03-22T05:04:40.355Z,4.43
2023-03-22T05:07:16.176Z,4.50
2023-03-22T05:09:49.480Z,4.82
2023-03-22T05:12:18.506Z,4.22
2023-03-22T05:14:57.460Z,4.35
2023-03-22T05:17:30.985Z,4.80
2023-03-22T05:20:07.094Z,4.97
2023-03-22T05:22:34.830Z,5.03
2023-03-22T05:25:02.622Z,5.10
2023-03-22T05:27:35.098Z,4.93
2023-03-22T05:30:13.527Z,5.10
2023-03-22T05:32:50.450Z,5.35
2023-03-22T05:35:18.501Z,4.75
2023-03-22T05:37:51.744Z,5.70
2023-03-22T05:40:21.540Z,6.18
2023-03-22T05:42:48.875Z,5.50
2023-03-22T05:45:24.033Z,5.82
2023-03-22T05:48:03.549Z,5.47
2023-03-22T05:50:32.834Z,6.18
2023-03-22T05:53:01.400Z,5.90
2023-03-22T05:55:46.841Z,6.53
2023-03-22T05:58:19.347Z,6.43
2023-03-22T06:00:51.916Z,6.82
2023-03-22T06:03:19.362Z,6.80
2023-03-22T06:05:54.979Z,6.40
2023-03-22T06:08:38.246Z,6.15
2023-03-22T06:11:07.666Z,6.88
2023-03-22T06:13:36.036Z,7.03
2023-03-22T06:16:04.554Z,6.85
2023-03-22T06:18:33.187Z,7.18
2023-03-22T06:21:08.442Z,7.50
2023-03-22T06:23:36.619Z,7.38
2023-03-22T06:26:04.248Z,6.82
2023-03-22T06:28:34.750Z,8.20
2023-03-22T06:31:09.249Z,6.43
2023-03-22T06:33:48.264Z,7.30
2023-03-22T06:36:26.536Z,7.55
2023-03-22T06:39:12.212Z,7.78
2023-03-22T06:41:43.468Z,7.18
2023-03-22T06:44:11.172Z,7.30
2023-03-22T06:47:01.811Z,7.35
2023-03-22T06:49:49.380Z,6.90
2023-03-22T06:52:27.041Z,6.68
2023-03-22T06:54:56.946Z,6.47
2023-03-22T06:57:25.723Z,6.63
2023-03-22T06:59:53.672Z,6.35
2023-03-22T07:02:21.143Z,6.22
2023-03-22T07:05:09.029Z,6.68
2023-03-22T07:07:36.474Z,6.22
2023-03-22T07:10:04.659Z,6.53
2023-03-22T07:12:32.132Z,5.70
2023-03-22T07:15:08.053Z,6.10
2023-03-22T07:17:53.861Z,5.93
2023-03-22T07:20:21.873Z,6.00
2023-03-22T07:22:51.487Z,5.47
2023-03-22T07:25:21.208Z,6.25
2023-03-22T07:27:53.829Z,5.32
2023-03-22T07:30:22.527Z,6.10
2023-03-22T07:32:49.967Z,6.03
2023-03-22T07:35:19.008Z,5.70
2023-03-22T07:37:48.658Z,5.13
2023-03-22T07:40:23.518Z,4.00
2023-03-22T07:42:55.762Z,4.32
2023-03-22T07:45:55.444Z,4.60
2023-03-22T07:48:41.853Z,4.60
2023-03-22T07:51:43.033Z,4.57
2023-03-22T07:54:14.057Z,3.50
2023-03-22T07:56:48.105Z,3.90
2023-03-22T07:59:17.132Z,3.90
2023-03-22T08:01:45.412Z,3.97
2023-03-22T08:04:27.966Z,3.70
2023-03-22T08:07:02.651Z,3.88
2023-03-22T08:09:30.248Z,3.90
2023-03-22T08:11:57.684Z,4.07
2023-03-22T08:14:35.948Z,3.95
2023-03-22T08:17:07.652Z,4.28
2023-03-22T08:19:35.627Z,4.40
2023-03-22T08:22:03.837Z,4.35
2023-03-22T08:24:54.647Z,3.95
2023-03-22T08:27:27.719Z,3.58
2023-03-22T08:29:56.690Z,3.38
2023-03-22T08:32:24.073Z,3.78
2023-03-22T08:34:52.885Z,4.32
2023-03-22T08:37:20.484Z,3.95
2023-03-22T08:39:48.777Z,3.50
2023-03-22T08:42:26.710Z,3.95
2023-03-22T08:44:54.341Z,3.63
2023-03-22T08:47:26.483Z,3.78
2023-03-22T08:50:00.652Z,4.43
2023-03-22T08:52:37.901Z,3.97
2023-03-22T08:55:10.657Z,4.25
2023-03-22T08:57:58.797Z,4.18
2023-03-22T09:00:47.419Z,3.70
2023-03-22T09:03:45.215Z,4.65
2023-03-22T09:06:16.369Z,4.20
2023-03-22T09:08:44.436Z,4.22
2023-03-22T09:11:17.711Z,4.85
2023-03-22T09:13:48.650Z,5.10
2023-03-22T09:16:17.636Z,4.90
2023-03-22T09:18:46.487Z,5.47
2023-03-22T09:21:17.691Z,4.30
2023-03-22T09:23:56.836Z,3.97
2023-03-22T09:26:33.407Z,4.60
2023-03-22T09:29:02.089Z,4.22
2023-03-22T09:31:33.368Z,4.10
2023-03-22T09:34:11.077Z,4.07
2023-03-22T09:36:40.593Z,4.00
2023-03-22T09:39:10.074Z,4.15
2023-03-22T09:41:44.565Z,3.67
2023-03-22T09:44:16.829Z,3.75
2023-03-22T09:46:49.273Z,3.40
2023-03-22T09:49:21.129Z,3.35
2023-03-22T09:51:53.434Z,3.50
2023-03-22T09:54:30.337Z,3.95
2023-03-22T09:57:08.821Z,3.75
2023-03-22T10:00:16.642Z,3.05
2023-03-22T10:02:47.152Z,3.55
2023-03-22T10:05:44.170Z,3.90
2023-03-22T10:08:40.744Z,3.50
2023-03-22T10:11:22.265Z,3.78
2023-03-22T10:13:56.272Z,3.80
2023-03-22T10:16:33.381Z,3.30
2023-03-22T10:19:24.517Z,3.30
2023-03-22T10:21:55.177Z,3.10
2023-03-22T10:24:28.057Z,3.10
2023-03-22T10:26:58.066Z,3.55
2023-03-22T10:29:37.740Z,3.10
2023-03-22T10:32:29.474Z,3.10
2023-03-22T10:34:56.719Z,3.83
2023-03-22T10:37:32.265Z,3.83
2023-03-22T10:40:06.341Z,3.50
2023-03-22T10:42:37.906Z,4.03
2023-03-22T10:45:13.729Z,2.80
2023-03-22T10:47:50.596Z,2.92
2023-03-22T10:50:31.778Z,3.28
2023-03-22T10:53:06.415Z,2.92
2023-03-22T10:55:41.377Z,2.70
2023-03-22T10:58:15.793Z,3.00
2023-03-22T11:01:11.882Z,2.83
2023-03-22T11:03:42.132Z,3.10
2023-03-22T11:06:12.307Z,2.63
2023-03-22T11:08:56.035Z,2.78
2023-03-22T11:11:48.833Z,2.85
2023-03-22T11:14:23.161Z,2.40
2023-03-22T11:17:01.495Z,2.13
2023-03-22T11:19:55.452Z,2.45
2023-03-22T11:22:32.111Z,2.15
2023-03-22T11:25:03.202Z,2.50
2023-03-22T11:27:33.922Z,2.25
2023-03-22T11:30:22.834Z,1.83
2023-03-22T11:33:08.142Z,2.15
2023-03-22T11:35:39.738Z,2.83
2023-03-22T11:38:07.925Z,3.85
2023-03-22T11:40:37.043Z,3.13
2023-03-22T11:43:10.864Z,2.85
2023-03-22T11:45:44.818Z,2.80
2023-03-22T11:48:20.021Z,2.78
2023-03-22T11:50:48.818Z,2.50
2023-03-22T11:53:26.077Z,2.30
2023-03-22T11:55:57.949Z,2.15
2023-03-22T11:58:43.299Z,2.08
2023-03-22T12:01:18.476Z,2.03
2023-03-22T12:03:51.977Z,2.10
2023-03-22T12:06:30.065Z,1.90
2023-03-22T12:09:11.011Z,1.98
2023-03-22T12:11:47.321Z,2.53
2023-03-22T12:14:17.541Z,2.75
2023-03-22T12:16:52.495Z,2.47
2023-03-22T12:19:52.343Z,2.55
2023-03-22T12:22:33.745Z,2.30
2023-03-22T12:25:03.510Z,1.83
2023-03-22T12:27:37.968Z,2.47
2023-03-22T12:30:13.396Z,1.92
2023-03-22T12:32:52.867Z,2.03
2023-03-22T12:35:27.276Z,2.40
2023-03-22T12:38:02.240Z,2.42
2023-03-22T12:40:34.889Z,2.33
2023-03-22T12:43:16.348Z,2.50
2023-03-22T12:45:49.288Z,2.60
2023-03-22T12:50:57.898Z,2.30
2023-03-22T12:53:30.820Z,2.70
2023-03-22T12:55:58.925Z,2.45
2023-03-22T12:58:26.825Z,2.85
2023-03-22T13:01:09.836Z,2.70
2023-03-22T13:03:46.972Z,2.60
2023-03-22T13:06:31.982Z,2.60
2023-03-22T13:09:19.900Z,1.95
2023-03-22T13:11:49.802Z,1.90
2023-03-22T13:14:58.108Z,1.50
2023-03-22T13:17:43.046Z,1.38
2023-03-22T13:20:14.857Z,1.48
2023-03-22T13:22:41.867Z,1.30
2023-03-22T13:25:17.194Z,1.30
2023-03-22T13:27:45.620Z,1.85
2023-03-22T13:30:22.151Z,1.67
2023-03-22T13:32:55.349Z,1.63
2023-03-22T13:35:59.123Z,1.40
2023-03-22T13:38:29.676Z,1.70
2023-03-22T13:41:22.852Z,1.70
2023-03-22T13:43:52.356Z,1.60
2023-03-22T13:46:22.206Z,1.70
2023-03-22T13:48:56.380Z,1.85
2023-03-22T13:51:30.528Z,1.80
2023-03-22T13:54:19.134Z,2.10
2023-03-22T13:57:01.632Z,2.00
2023-03-22T13:59:30.514Z,2.40
2023-03-22T14:02:11.167Z,1.92
2023-03-22T14:04:48.944Z,2.10
2023-03-22T14:07:46.671Z,2.13
2023-03-22T14:10:43.873Z,2.08
2023-03-22T14:13:28.537Z,2.00
2023-03-22T14:16:07.033Z,2.10
2023-03-22T14:18:37.246Z,2.40
2023-03-22T14:21:13.517Z,2.70
